sensor_id;sensor_type;location;lat;lon;timestamp;temperature;humidity
19586;DHT22;9939;49.246;9.106;2023-07-22T00:00:38;15.00;99.90
19586;DHT22;9939;49.246;9.106;2023-07-22T00:03:05;15.00;99.90
19586;DHT22;9939;49.246;9.106;2023-07-22T00:05:32;14.90;99.90
19586;DHT22;9939;49.246;9.106;2023-07-22T00:07:59;14.80;99.90
19586;DHT22;9939;49.246;9.106;2023-07-22T00:10:26;14.80;99.90
19586;DHT22;9939;49.246;9.106;2023-07-22T00:12:52;14.70;99.90
19586;DHT22;9939;49.246;9.106;2023-07-22T00:15:19;14.70;99.90
19586;DHT22;9939;49.246;9.106;2023-07-22T00:17:48;14.90;99.90
19586;DHT22;9939;49.246;9.106;2023-07-22T00:20:15;14.90;99.90
19586;DHT22;9939;49.246;9.106;2023-07-22T00:22:42;14.70;99.90
19586;DHT22;9939;49.246;9.106;2023-07-22T00:25:10;14.50;99.90
19586;DHT22;9939;49.246;9.106;2023-07-22T00:27:38;14.60;99.90
19586;DHT22;9939;49.246;9.106;2023-07-22T00:30:08;14.60;99.90
19586;DHT22;9939;49.246;9.106;2023-07-22T00:32:35;14.40;99.90
19586;DHT22;9939;49.246;9.106;2023-07-22T00:35:04;14.20;99.90
19586;DHT22;9939;49.246;9.106;2023-07-22T00:37:32;14.20;99.90
19586;DHT22;9939;49.246;9.106;2023-07-22T00:40:00;14.20;99.90
19586;DHT22;9939;49.246;9.106;2023-07-22T00:42:27;14.20;99.90
19586;DHT22;9939;49.246;9.106;2023-07-22T00:44:54;14.30;99.90
19586;DHT22;9939;49.246;9.106;2023-07-22T00:47:21;14.20;99.90
19586;DHT22;9939;49.246;9.106;2023-07-22T00:49:48;14.30;99.90
19586;DHT22;9939;49.246;9.106;2023-07-22T00:52:15;14.30;99.90
19586;DHT22;9939;49.246;9.106;2023-07-22T00:54:43;14.30;99.90
19586;DHT22;9939;49.246;9.106;2023-07-22T00:57:12;14.20;99.90
19586;DHT22;9939;49.246;9.106;2023-07-22T00:59:39;14.10;99.90
19586;DHT22;9939;49.246;9.106;2023-07-22T01:02:06;13.90;99.90
19586;DHT22;9939;49.246;9.106;2023-07-22T01:04:33;13.90;99.90
19586;DHT22;9939;49.246;9.106;2023-07-22T01:07:01;13.90;99.90
19586;DHT22;9939;49.246;9.106;2023-07-22T01:09:47;13.80;99.90
19586;DHT22;9939;49.246;9.106;2023-07-22T01:12:14;13.90;99.90
19586;DHT22;9939;49.246;9.106;2023-07-22T01:14:41;14.10;99.90
19586;DHT22;9939;49.246;9.106;2023-07-22T01:17:08;14.00;99.90
19586;DHT22;9939;49.246;9.106;2023-07-22T01:19:36;14.10;99.90
19586;DHT22;9939;49.246;9.106;2023-07-22T01:22:03;14.20;99.90
19586;DHT22;9939;49.246;9.106;2023-07-22T01:24:31;14.10;99.90
19586;DHT22;9939;49.246;9.106;2023-07-22T01:26:58;14.20;99.90
19586;DHT22;9939;49.246;9.106;2023-07-22T01:29:25;14.20;99.90
19586;DHT22;9939;49.246;9.106;2023-07-22T01:31:53;14.20;99.90
19586;DHT22;9939;49.246;9.106;2023-07-22T01:34:21;14.50;99.90
19586;DHT22;9939;49.246;9.106;2023-07-22T01:36:48;14.70;99.90
19586;DHT22;9939;49.246;9.106;2023-07-22T01:39:15;14.60;99.90
19586;DHT22;9939;49.246;9.106;2023-07-22T01:41:43;14.60;99.90
19586;DHT22;9939;49.246;9.106;2023-07-22T01:44:09;14.60;99.90
19586;DHT22;9939;49.246;9.106;2023-07-22T01:46:37;14.60;99.90
19586;DHT22;9939;49.246;9.106;2023-07-22T01:49:05;14.50;99.90
19586;DHT22;9939;49.246;9.106;2023-07-22T01:51:32;14.50;99.90
19586;DHT22;9939;49.246;9.106;2023-07-22T01:53:58;14.60;99.90
19586;DHT22;9939;49.246;9.106;2023-07-22T01:56:25;14.60;99.90
19586;DHT22;9939;49.246;9.106;2023-07-22T01:58:52;14.90;99.90
19586;DHT22;9939;49.246;9.106;2023-07-22T02:01:19;14.70;99.90
19586;DHT22;9939;49.246;9.106;2023-07-22T02:03:46;14.70;99.90
19586;DHT22;9939;49.246;9.106;2023-07-22T02:06:13;14.70;99.90
19586;DHT22;9939;49.246;9.106;2023-07-22T02:08:40;14.60;99.90
19586;DHT22;9939;49.246;9.106;2023-07-22T02:11:07;14.60;99.90
19586;DHT22;9939;49.246;9.106;2023-07-22T02:13:35;14.60;99.90
19586;DHT22;9939;49.246;9.106;2023-07-22T02:16:02;14.60;99.90
19586;DHT22;9939;49.246;9.106;2023-07-22T02:18:29;14.50;99.90
19586;DHT22;9939;49.246;9.106;2023-07-22T02:20:56;14.50;99.90
19586;DHT22;9939;49.246;9.106;2023-07-22T02:23:23;14.50;99.90
19586;DHT22;9939;49.246;9.106;2023-07-22T02:25:53;14.50;99.90
19586;DHT22;9939;49.246;9.106;2023-07-22T02:28:20;14.40;99.90
19586;DHT22;9939;49.246;9.106;2023-07-22T02:30:49;14.50;99.90
19586;DHT22;9939;49.246;9.106;2023-07-22T02:33:16;14.40;99.90
19586;DHT22;9939;49.246;9.106;2023-07-22T02:35:43;14.40;99.90
19586;DHT22;9939;49.246;9.106;2023-07-22T02:38:12;14.60;99.90
19586;DHT22;9939;49.246;9.106;2023-07-22T02:40:40;14.70;99.90
19586;DHT22;9939;49.246;9.106;2023-07-22T02:43:07;14.60;99.90
19586;DHT22;9939;49.246;9.106;2023-07-22T02:45:35;14.70;99.90
19586;DHT22;9939;49.246;9.106;2023-07-22T02:48:04;14.70;99.90
19586;DHT22;9939;49.246;9.106;2023-07-22T02:50:32;14.70;99.90
19586;DHT22;9939;49.246;9.106;2023-07-22T02:52:59;14.80;99.90
19586;DHT22;9939;49.246;9.106;2023-07-22T02:55:26;14.70;99.90
19586;DHT22;9939;49.246;9.106;2023-07-22T02:57:52;14.90;99.90
19586;DHT22;9939;49.246;9.106;2023-07-22T03:00:19;14.90;99.90
19586;DHT22;9939;49.246;9.106;2023-07-22T03:02:54;14.60;99.90
19586;DHT22;9939;49.246;9.106;2023-07-22T03:05:28;14.80;99.90
19586;DHT22;9939;49.246;9.106;2023-07-22T03:07:55;14.70;99.90
19586;DHT22;9939;49.246;9.106;2023-07-22T03:10:22;14.70;99.90
19586;DHT22;9939;49.246;9.106;2023-07-22T03:12:49;14.80;99.90
19586;DHT22;9939;49.246;9.106;2023-07-22T03:15:16;14.80;99.90
19586;DHT22;9939;49.246;9.106;2023-07-22T03:17:45;14.80;99.90
19586;DHT22;9939;49.246;9.106;2023-07-22T03:20:12;14.70;99.90
19586;DHT22;9939;49.246;9.106;2023-07-22T03:22:43;14.70;99.90
19586;DHT22;9939;49.246;9.106;2023-07-22T03:25:11;14.50;99.90
19586;DHT22;9939;49.246;9.106;2023-07-22T03:27:38;14.70;99.90
19586;DHT22;9939;49.246;9.106;2023-07-22T03:30:05;14.60;99.90
19586;DHT22;9939;49.246;9.106;2023-07-22T03:32:34;14.50;99.90
19586;DHT22;9939;49.246;9.106;2023-07-22T03:35:01;14.50;99.90
19586;DHT22;9939;49.246;9.106;2023-07-22T03:37:30;14.60;99.90
19586;DHT22;9939;49.246;9.106;2023-07-22T03:39:58;14.50;99.90
19586;DHT22;9939;49.246;9.106;2023-07-22T03:42:25;14.60;99.90
19586;DHT22;9939;49.246;9.106;2023-07-22T03:44:51;14.70;99.90
19586;DHT22;9939;49.246;9.106;2023-07-22T03:47:19;14.70;99.90
19586;DHT22;9939;49.246;9.106;2023-07-22T03:49:46;14.70;99.90
19586;DHT22;9939;49.246;9.106;2023-07-22T03:52:12;14.80;99.90
19586;DHT22;9939;49.246;9.106;2023-07-22T03:54:40;14.90;99.90
19586;DHT22;9939;49.246;9.106;2023-07-22T03:57:07;14.80;99.90
19586;DHT22;9939;49.246;9.106;2023-07-22T03:59:34;14.80;99.90
19586;DHT22;9939;49.246;9.106;2023-07-22T04:02:02;15.10;99.90
19586;DHT22;9939;49.246;9.106;2023-07-22T04:04:29;15.00;99.90
19586;DHT22;9939;49.246;9.106;2023-07-22T04:06:55;15.00;99.90
19586;DHT22;9939;49.246;9.106;2023-07-22T04:09:22;14.80;99.90
19586;DHT22;9939;49.246;9.106;2023-07-22T04:11:49;14.70;99.90
19586;DHT22;9939;49.246;9.106;2023-07-22T04:14:16;14.70;99.90
19586;DHT22;9939;49.246;9.106;2023-07-22T04:16:42;14.70;99.90
19586;DHT22;9939;49.246;9.106;2023-07-22T04:19:09;14.70;99.90
19586;DHT22;9939;49.246;9.106;2023-07-22T04:21:36;14.90;99.90
19586;DHT22;9939;49.246;9.106;2023-07-22T04:24:03;15.00;99.90
19586;DHT22;9939;49.246;9.106;2023-07-22T04:26:30;14.90;99.90
19586;DHT22;9939;49.246;9.106;2023-07-22T04:28:57;14.80;99.90
19586;DHT22;9939;49.246;9.106;2023-07-22T04:31:25;14.80;99.90
19586;DHT22;9939;49.246;9.106;2023-07-22T04:33:52;14.60;99.90
19586;DHT22;9939;49.246;9.106;2023-07-22T04:36:19;14.40;99.90
19586;DHT22;9939;49.246;9.106;2023-07-22T04:38:46;14.50;99.90
19586;DHT22;9939;49.246;9.106;2023-07-22T04:41:13;14.60;99.90
19586;DHT22;9939;49.246;9.106;2023-07-22T04:43:39;14.90;99.90
19586;DHT22;9939;49.246;9.106;2023-07-22T04:46:06;14.80;99.90
19586;DHT22;9939;49.246;9.106;2023-07-22T04:48:34;14.90;99.90
19586;DHT22;9939;49.246;9.106;2023-07-22T04:51:01;14.90;99.90
19586;DHT22;9939;49.246;9.106;2023-07-22T04:53:28;14.90;99.90
19586;DHT22;9939;49.246;9.106;2023-07-22T04:55:55;14.90;99.90
19586;DHT22;9939;49.246;9.106;2023-07-22T04:58:21;15.00;99.90
19586;DHT22;9939;49.246;9.106;2023-07-22T05:00:48;15.00;99.90
19586;DHT22;9939;49.246;9.106;2023-07-22T05:03:15;15.00;99.90
19586;DHT22;9939;49.246;9.106;2023-07-22T05:05:42;15.10;99.90
19586;DHT22;9939;49.246;9.106;2023-07-22T05:08:09;15.00;99.90
19586;DHT22;9939;49.246;9.106;2023-07-22T05:10:36;15.20;99.90
19586;DHT22;9939;49.246;9.106;2023-07-22T05:13:03;15.30;99.90
19586;DHT22;9939;49.246;9.106;2023-07-22T05:15:30;15.30;99.90
19586;DHT22;9939;49.246;9.106;2023-07-22T05:17:57;15.30;99.90
19586;DHT22;9939;49.246;9.106;2023-07-22T05:20:23;15.50;99.90
19586;DHT22;9939;49.246;9.106;2023-07-22T05:22:50;15.50;99.90
19586;DHT22;9939;49.246;9.106;2023-07-22T05:25:17;15.40;99.90
19586;DHT22;9939;49.246;9.106;2023-07-22T05:27:44;15.60;99.90
19586;DHT22;9939;49.246;9.106;2023-07-22T05:30:11;15.50;99.90
19586;DHT22;9939;49.246;9.106;2023-07-22T05:32:57;15.50;99.90
19586;DHT22;9939;49.246;9.106;2023-07-22T05:35:24;15.60;99.90
19586;DHT22;9939;49.246;9.106;2023-07-22T05:37:51;15.70;99.90
19586;DHT22;9939;49.246;9.106;2023-07-22T05:40:18;15.80;99.90
19586;DHT22;9939;49.246;9.106;2023-07-22T05:42:45;16.20;99.90
19586;DHT22;9939;49.246;9.106;2023-07-22T05:45:11;16.60;99.90
19586;DHT22;9939;49.246;9.106;2023-07-22T05:47:41;16.40;99.90
19586;DHT22;9939;49.246;9.106;2023-07-22T05:50:08;16.10;99.90
19586;DHT22;9939;49.246;9.106;2023-07-22T05:52:35;16.20;99.90
19586;DHT22;9939;49.246;9.106;2023-07-22T05:55:02;16.50;99.90
19586;DHT22;9939;49.246;9.106;2023-07-22T05:57:29;16.90;99.90
19586;DHT22;9939;49.246;9.106;2023-07-22T05:59:57;17.10;99.90
19586;DHT22;9939;49.246;9.106;2023-07-22T06:02:38;17.30;99.90
19586;DHT22;9939;49.246;9.106;2023-07-22T06:05:05;17.70;99.90
19586;DHT22;9939;49.246;9.106;2023-07-22T06:07:31;17.90;99.90
19586;DHT22;9939;49.246;9.106;2023-07-22T06:09:58;18.10;99.90
19586;DHT22;9939;49.246;9.106;2023-07-22T06:12:25;17.80;99.90
19586;DHT22;9939;49.246;9.106;2023-07-22T06:14:57;18.10;99.90
19586;DHT22;9939;49.246;9.106;2023-07-22T06:17:24;18.60;99.90
19586;DHT22;9939;49.246;9.106;2023-07-22T06:19:51;19.00;99.90
19586;DHT22;9939;49.246;9.106;2023-07-22T06:22:18;18.80;99.90
19586;DHT22;9939;49.246;9.106;2023-07-22T06:24:45;18.80;99.90
19586;DHT22;9939;49.246;9.106;2023-07-22T06:27:11;18.70;99.90
19586;DHT22;9939;49.246;9.106;2023-07-22T06:29:38;18.70;99.90
19586;DHT22;9939;49.246;9.106;2023-07-22T06:32:05;18.90;99.90
19586;DHT22;9939;49.246;9.106;2023-07-22T06:34:32;18.80;99.90
19586;DHT22;9939;49.246;9.106;2023-07-22T06:36:59;19.10;99.90
19586;DHT22;9939;49.246;9.106;2023-07-22T06:39:25;19.30;99.90
19586;DHT22;9939;49.246;9.106;2023-07-22T06:41:52;19.10;99.90
19586;DHT22;9939;49.246;9.106;2023-07-22T06:44:19;19.20;99.90
19586;DHT22;9939;49.246;9.106;2023-07-22T06:46:45;19.00;99.90
19586;DHT22;9939;49.246;9.106;2023-07-22T06:49:12;18.90;99.90
19586;DHT22;9939;49.246;9.106;2023-07-22T06:51:39;19.50;99.90
19586;DHT22;9939;49.246;9.106;2023-07-22T06:54:06;19.60;99.90
19586;DHT22;9939;49.246;9.106;2023-07-22T06:56:33;19.80;99.90
19586;DHT22;9939;49.246;9.106;2023-07-22T06:58:59;19.70;99.90
19586;DHT22;9939;49.246;9.106;2023-07-22T07:01:26;19.80;99.90
19586;DHT22;9939;49.246;9.106;2023-07-22T07:03:53;19.90;99.90
19586;DHT22;9939;49.246;9.106;2023-07-22T07:06:20;20.20;99.90
19586;DHT22;9939;49.246;9.106;2023-07-22T07:08:47;20.50;99.90
19586;DHT22;9939;49.246;9.106;2023-07-22T07:11:15;20.70;99.90
19586;DHT22;9939;49.246;9.106;2023-07-22T07:13:42;20.90;99.90
19586;DHT22;9939;49.246;9.106;2023-07-22T07:18:51;20.50;99.90
19586;DHT22;9939;49.246;9.106;2023-07-22T07:21:18;20.80;99.90
19586;DHT22;9939;49.246;9.106;2023-07-22T07:23:45;21.60;99.90
19586;DHT22;9939;49.246;9.106;2023-07-22T07:26:12;22.10;99.90
19586;DHT22;9939;49.246;9.106;2023-07-22T07:28:39;21.80;99.90
19586;DHT22;9939;49.246;9.106;2023-07-22T07:31:06;21.90;99.90
19586;DHT22;9939;49.246;9.106;2023-07-22T07:33:33;21.70;99.90
19586;DHT22;9939;49.246;9.106;2023-07-22T07:36:00;22.20;99.90
19586;DHT22;9939;49.246;9.106;2023-07-22T07:38:27;22.40;99.90
19586;DHT22;9939;49.246;9.106;2023-07-22T07:40:56;21.10;99.90
19586;DHT22;9939;49.246;9.106;2023-07-22T07:43:23;21.10;99.90
19586;DHT22;9939;49.246;9.106;2023-07-22T07:45:50;21.90;99.90
19586;DHT22;9939;49.246;9.106;2023-07-22T07:48:17;22.40;99.90
19586;DHT22;9939;49.246;9.106;2023-07-22T07:50:44;23.00;99.90
19586;DHT22;9939;49.246;9.106;2023-07-22T07:53:11;22.70;99.90
19586;DHT22;9939;49.246;9.106;2023-07-22T07:55:37;22.80;99.90
19586;DHT22;9939;49.246;9.106;2023-07-22T07:58:04;22.80;99.90
19586;DHT22;9939;49.246;9.106;2023-07-22T08:00:31;23.00;99.90
19586;DHT22;9939;49.246;9.106;2023-07-22T08:02:58;23.30;99.90
19586;DHT22;9939;49.246;9.106;2023-07-22T08:05:24;22.50;99.90
19586;DHT22;9939;49.246;9.106;2023-07-22T08:07:51;22.30;99.90
19586;DHT22;9939;49.246;9.106;2023-07-22T08:10:18;22.40;99.90
19586;DHT22;9939;49.246;9.106;2023-07-22T08:12:45;21.90;99.90
19586;DHT22;9939;49.246;9.106;2023-07-22T08:15:11;22.30;99.90
19586;DHT22;9939;49.246;9.106;2023-07-22T08:17:39;22.70;99.90
19586;DHT22;9939;49.246;9.106;2023-07-22T08:20:06;22.60;99.90
19586;DHT22;9939;49.246;9.106;2023-07-22T08:22:34;22.90;99.90
19586;DHT22;9939;49.246;9.106;2023-07-22T08:25:01;23.30;99.90
19586;DHT22;9939;49.246;9.106;2023-07-22T08:27:28;23.30;99.90
19586;DHT22;9939;49.246;9.106;2023-07-22T08:29:55;23.30;99.90
19586;DHT22;9939;49.246;9.106;2023-07-22T08:32:22;23.50;99.90
19586;DHT22;9939;49.246;9.106;2023-07-22T08:34:49;23.80;99.90
19586;DHT22;9939;49.246;9.106;2023-07-22T08:37:15;24.50;99.90
19586;DHT22;9939;49.246;9.106;2023-07-22T08:39:42;24.50;99.90
19586;DHT22;9939;49.246;9.106;2023-07-22T08:42:09;24.90;99.90
19586;DHT22;9939;49.246;9.106;2023-07-22T08:44:38;24.70;99.90
19586;DHT22;9939;49.246;9.106;2023-07-22T08:47:05;25.30;99.90
19586;DHT22;9939;49.246;9.106;2023-07-22T08:49:34;25.70;99.90
19586;DHT22;9939;49.246;9.106;2023-07-22T08:52:01;25.60;99.90
19586;DHT22;9939;49.246;9.106;2023-07-22T08:54:28;25.30;99.90
19586;DHT22;9939;49.246;9.106;2023-07-22T08:56:54;24.90;99.90
19586;DHT22;9939;49.246;9.106;2023-07-22T08:59:22;24.60;99.90
19586;DHT22;9939;49.246;9.106;2023-07-22T09:01:48;24.30;99.90
19586;DHT22;9939;49.246;9.106;2023-07-22T09:04:15;24.10;99.90
19586;DHT22;9939;49.246;9.106;2023-07-22T09:06:42;24.30;99.90
19586;DHT22;9939;49.246;9.106;2023-07-22T09:09:09;24.20;99.90
19586;DHT22;9939;49.246;9.106;2023-07-22T09:11:36;24.50;99.90
19586;DHT22;9939;49.246;9.106;2023-07-22T09:14:03;24.70;99.90
19586;DHT22;9939;49.246;9.106;2023-07-22T09:16:33;24.70;99.90
19586;DHT22;9939;49.246;9.106;2023-07-22T09:19:00;25.20;99.90
19586;DHT22;9939;49.246;9.106;2023-07-22T09:21:27;25.80;99.90
19586;DHT22;9939;49.246;9.106;2023-07-22T09:23:54;26.00;99.90
19586;DHT22;9939;49.246;9.106;2023-07-22T09:26:21;26.80;99.90
19586;DHT22;9939;49.246;9.106;2023-07-22T09:28:48;27.70;99.90
19586;DHT22;9939;49.246;9.106;2023-07-22T09:31:15;28.00;99.90
19586;DHT22;9939;49.246;9.106;2023-07-22T09:33:42;27.50;99.90
19586;DHT22;9939;49.246;9.106;2023-07-22T09:36:10;27.10;99.90
19586;DHT22;9939;49.246;9.106;2023-07-22T09:38:36;27.30;99.90
19586;DHT22;9939;49.246;9.106;2023-07-22T09:41:03;27.70;99.90
19586;DHT22;9939;49.246;9.106;2023-07-22T09:43:30;28.60;99.90
19586;DHT22;9939;49.246;9.106;2023-07-22T09:46:05;28.60;99.90
19586;DHT22;9939;49.246;9.106;2023-07-22T09:48:51;27.80;99.90
19586;DHT22;9939;49.246;9.106;2023-07-22T09:51:19;26.80;99.90
19586;DHT22;9939;49.246;9.106;2023-07-22T09:53:59;27.60;99.90
19586;DHT22;9939;49.246;9.106;2023-07-22T09:56:26;27.40;99.90
19586;DHT22;9939;49.246;9.106;2023-07-22T09:58:53;28.30;99.90
19586;DHT22;9939;49.246;9.106;2023-07-22T10:01:22;29.10;99.90
19586;DHT22;9939;49.246;9.106;2023-07-22T10:03:50;28.90;99.60
19586;DHT22;9939;49.246;9.106;2023-07-22T10:06:24;29.30;99.80
19586;DHT22;9939;49.246;9.106;2023-07-22T10:08:55;30.50;99.00
19586;DHT22;9939;49.246;9.106;2023-07-22T10:11:22;30.70;96.30
19586;DHT22;9939;49.246;9.106;2023-07-22T10:13:49;29.10;97.20
19586;DHT22;9939;49.246;9.106;2023-07-22T10:16:16;27.70;99.00
19586;DHT22;9939;49.246;9.106;2023-07-22T10:18:42;26.90;99.90
19586;DHT22;9939;49.246;9.106;2023-07-22T10:21:11;26.60;99.90
19586;DHT22;9939;49.246;9.106;2023-07-22T10:23:39;27.20;99.90
19586;DHT22;9939;49.246;9.106;2023-07-22T10:26:06;26.90;99.90
19586;DHT22;9939;49.246;9.106;2023-07-22T10:28:33;27.80;99.90
19586;DHT22;9939;49.246;9.106;2023-07-22T10:31:00;29.60;98.50
19586;DHT22;9939;49.246;9.106;2023-07-22T10:33:29;30.50;97.00
19586;DHT22;9939;49.246;9.106;2023-07-22T10:36:03;32.20;95.00
19586;DHT22;9939;49.246;9.106;2023-07-22T10:38:31;30.00;95.30
19586;DHT22;9939;49.246;9.106;2023-07-22T10:40:58;27.70;96.70
19586;DHT22;9939;49.246;9.106;2023-07-22T10:43:26;27.20;98.10
19586;DHT22;9939;49.246;9.106;2023-07-22T10:45:54;26.70;97.70
19586;DHT22;9939;49.246;9.106;2023-07-22T10:48:34;27.40;97.70
19586;DHT22;9939;49.246;9.106;2023-07-22T10:51:05;28.30;96.60
19586;DHT22;9939;49.246;9.106;2023-07-22T10:53:33;30.00;95.10
19586;DHT22;9939;49.246;9.106;2023-07-22T11:01:32;30.90;93.00
19586;DHT22;9939;49.246;9.106;2023-07-22T11:06:29;29.10;94.20
19586;DHT22;9939;49.246;9.106;2023-07-22T11:08:56;28.30;95.50
19586;DHT22;9939;49.246;9.106;2023-07-22T11:11:44;28.30;96.20
19586;DHT22;9939;49.246;9.106;2023-07-22T11:14:15;29.20;96.20
19586;DHT22;9939;49.246;9.106;2023-07-22T11:16:44;30.90;94.60
19586;DHT22;9939;49.246;9.106;2023-07-22T11:19:14;30.80;93.90
19586;DHT22;9939;49.246;9.106;2023-07-22T11:21:42;30.50;93.90
19586;DHT22;9939;49.246;9.106;2023-07-22T11:24:09;31.90;92.10
19586;DHT22;9939;49.246;9.106;2023-07-22T11:26:36;32.00;91.70
19586;DHT22;9939;49.246;9.106;2023-07-22T11:29:04;31.80;90.90
19586;DHT22;9939;49.246;9.106;2023-07-22T11:31:31;30.90;91.60
19586;DHT22;9939;49.246;9.106;2023-07-22T11:33:58;30.40;92.20
19586;DHT22;9939;49.246;9.106;2023-07-22T11:36:26;30.50;91.60
19586;DHT22;9939;49.246;9.106;2023-07-22T11:38:53;31.30;91.20
19586;DHT22;9939;49.246;9.106;2023-07-22T11:41:24;30.90;91.70
19586;DHT22;9939;49.246;9.106;2023-07-22T11:43:51;30.30;91.10
19586;DHT22;9939;49.246;9.106;2023-07-22T11:46:18;30.20;92.10
19586;DHT22;9939;49.246;9.106;2023-07-22T11:48:48;31.60;91.30
19586;DHT22;9939;49.246;9.106;2023-07-22T11:51:16;31.80;90.30
19586;DHT22;9939;49.246;9.106;2023-07-22T11:53:45;31.20;90.40
19586;DHT22;9939;49.246;9.106;2023-07-22T11:56:12;31.80;90.30
19586;DHT22;9939;49.246;9.106;2023-07-22T11:58:39;33.20;87.80
19586;DHT22;9939;49.246;9.106;2023-07-22T12:01:09;32.70;88.00
19586;DHT22;9939;49.246;9.106;2023-07-22T12:03:36;32.80;86.50
19586;DHT22;9939;49.246;9.106;2023-07-22T12:06:03;32.90;87.50
19586;DHT22;9939;49.246;9.106;2023-07-22T12:08:32;33.50;86.50
19586;DHT22;9939;49.246;9.106;2023-07-22T12:10:59;34.10;84.50
19586;DHT22;9939;49.246;9.106;2023-07-22T12:13:26;33.50;84.60
19586;DHT22;9939;49.246;9.106;2023-07-22T12:16:02;31.70;85.90
19586;DHT22;9939;49.246;9.106;2023-07-22T12:18:45;30.40;88.70
19586;DHT22;9939;49.246;9.106;2023-07-22T12:21:12;30.80;88.10
19586;DHT22;9939;49.246;9.106;2023-07-22T12:23:40;30.00;88.80
19586;DHT22;9939;49.246;9.106;2023-07-22T12:26:07;30.40;89.50
19586;DHT22;9939;49.246;9.106;2023-07-22T12:28:34;30.90;88.00
19586;DHT22;9939;49.246;9.106;2023-07-22T12:31:01;30.30;87.90
19586;DHT22;9939;49.246;9.106;2023-07-22T12:33:28;29.80;88.30
19586;DHT22;9939;49.246;9.106;2023-07-22T12:35:55;30.20;86.60
19586;DHT22;9939;49.246;9.106;2023-07-22T12:38:22;30.00;89.10
19586;DHT22;9939;49.246;9.106;2023-07-22T12:40:49;30.60;89.40
19586;DHT22;9939;49.246;9.106;2023-07-22T12:43:16;30.90;89.50
19586;DHT22;9939;49.246;9.106;2023-07-22T12:45:42;30.60;88.00
19586;DHT22;9939;49.246;9.106;2023-07-22T12:48:09;31.30;87.70
19586;DHT22;9939;49.246;9.106;2023-07-22T12:50:36;33.30;84.70
19586;DHT22;9939;49.246;9.106;2023-07-22T12:53:03;32.00;84.80
19586;DHT22;9939;49.246;9.106;2023-07-22T12:55:30;31.00;87.30
19586;DHT22;9939;49.246;9.106;2023-07-22T12:57:57;32.70;84.30
19586;DHT22;9939;49.246;9.106;2023-07-22T13:00:23;35.30;80.90
19586;DHT22;9939;49.246;9.106;2023-07-22T13:02:50;36.70;76.80
19586;DHT22;9939;49.246;9.106;2023-07-22T13:05:17;35.50;76.10
19586;DHT22;9939;49.246;9.106;2023-07-22T13:07:44;34.10;78.60
19586;DHT22;9939;49.246;9.106;2023-07-22T13:10:11;34.80;78.50
19586;DHT22;9939;49.246;9.106;2023-07-22T13:12:41;33.60;79.30
19586;DHT22;9939;49.246;9.106;2023-07-22T13:15:08;33.10;81.30
19586;DHT22;9939;49.246;9.106;2023-07-22T13:17:35;33.30;80.50
19586;DHT22;9939;49.246;9.106;2023-07-22T13:20:03;33.80;78.80
19586;DHT22;9939;49.246;9.106;2023-07-22T13:22:33;34.30;77.70
19586;DHT22;9939;49.246;9.106;2023-07-22T13:25:00;34.60;77.50
19586;DHT22;9939;49.246;9.106;2023-07-22T13:27:27;35.40;77.50
19586;DHT22;9939;49.246;9.106;2023-07-22T13:29:53;36.00;76.20
19586;DHT22;9939;49.246;9.106;2023-07-22T13:32:20;35.70;74.10
19586;DHT22;9939;49.246;9.106;2023-07-22T13:34:47;34.90;73.90
19586;DHT22;9939;49.246;9.106;2023-07-22T13:37:14;35.10;72.80
19586;DHT22;9939;49.246;9.106;2023-07-22T13:39:41;33.50;74.80
19586;DHT22;9939;49.246;9.106;2023-07-22T13:42:08;33.40;76.20
19586;DHT22;9939;49.246;9.106;2023-07-22T13:44:34;35.60;75.60
19586;DHT22;9939;49.246;9.106;2023-07-22T13:47:04;35.90;73.10
19586;DHT22;9939;49.246;9.106;2023-07-22T13:49:30;34.30;75.50
19586;DHT22;9939;49.246;9.106;2023-07-22T13:51:57;35.50;74.30
19586;DHT22;9939;49.246;9.106;2023-07-22T13:54:24;35.60;73.50
19586;DHT22;9939;49.246;9.106;2023-07-22T13:56:51;35.30;72.30
19586;DHT22;9939;49.246;9.106;2023-07-22T13:59:18;33.10;75.40
19586;DHT22;9939;49.246;9.106;2023-07-22T14:01:45;33.70;75.40
19586;DHT22;9939;49.246;9.106;2023-07-22T14:04:12;34.90;72.60
19586;DHT22;9939;49.246;9.106;2023-07-22T14:06:38;35.90;72.30
19586;DHT22;9939;49.246;9.106;2023-07-22T14:09:05;35.40;71.60
19586;DHT22;9939;49.246;9.106;2023-07-22T14:11:32;36.10;70.40
19586;DHT22;9939;49.246;9.106;2023-07-22T14:13:59;32.70;72.50
19586;DHT22;9939;49.246;9.106;2023-07-22T14:16:25;31.40;76.40
19586;DHT22;9939;49.246;9.106;2023-07-22T14:18:52;31.10;77.40
19586;DHT22;9939;49.246;9.106;2023-07-22T14:21:19;31.90;76.20
19586;DHT22;9939;49.246;9.106;2023-07-22T14:23:46;33.20;75.40
19586;DHT22;9939;49.246;9.106;2023-07-22T14:26:13;33.40;76.20
19586;DHT22;9939;49.246;9.106;2023-07-22T14:28:39;35.50;73.10
19586;DHT22;9939;49.246;9.106;2023-07-22T14:31:06;35.10;71.70
19586;DHT22;9939;49.246;9.106;2023-07-22T14:33:33;34.20;73.70
19586;DHT22;9939;49.246;9.106;2023-07-22T14:36:00;34.60;71.80
19586;DHT22;9939;49.246;9.106;2023-07-22T14:38:27;34.50;71.50
19586;DHT22;9939;49.246;9.106;2023-07-22T14:40:54;35.10;71.20
19586;DHT22;9939;49.246;9.106;2023-07-22T14:43:21;35.90;69.70
19586;DHT22;9939;49.246;9.106;2023-07-22T14:45:48;35.30;70.00
19586;DHT22;9939;49.246;9.106;2023-07-22T14:48:15;35.40;69.40
19586;DHT22;9939;49.246;9.106;2023-07-22T14:50:42;35.40;70.50
19586;DHT22;9939;49.246;9.106;2023-07-22T14:53:09;35.50;69.10
19586;DHT22;9939;49.246;9.106;2023-07-22T14:55:35;35.50;68.80
19586;DHT22;9939;49.246;9.106;2023-07-22T14:58:02;34.50;69.60
19586;DHT22;9939;49.246;9.106;2023-07-22T15:00:29;34.50;70.40
19586;DHT22;9939;49.246;9.106;2023-07-22T15:02:56;35.70;68.40
19586;DHT22;9939;49.246;9.106;2023-07-22T15:05:23;36.00;67.10
19586;DHT22;9939;49.246;9.106;2023-07-22T15:07:51;35.90;67.60
19586;DHT22;9939;49.246;9.106;2023-07-22T15:10:17;34.40;68.70
19586;DHT22;9939;49.246;9.106;2023-07-22T15:12:45;34.10;69.50
19586;DHT22;9939;49.246;9.106;2023-07-22T15:15:12;34.80;69.40
19586;DHT22;9939;49.246;9.106;2023-07-22T15:17:39;34.60;69.00
19586;DHT22;9939;49.246;9.106;2023-07-22T15:20:07;34.30;69.00
19586;DHT22;9939;49.246;9.106;2023-07-22T15:22:34;33.70;69.90
19586;DHT22;9939;49.246;9.106;2023-07-22T15:25:03;32.40;71.70
19586;DHT22;9939;49.246;9.106;2023-07-22T15:27:30;31.20;74.20
19586;DHT22;9939;49.246;9.106;2023-07-22T15:29:57;32.70;73.40
19586;DHT22;9939;49.246;9.106;2023-07-22T15:32:23;33.30;71.40
19586;DHT22;9939;49.246;9.106;2023-07-22T15:34:50;32.20;72.90
19586;DHT22;9939;49.246;9.106;2023-07-22T15:37:17;34.20;71.10
19586;DHT22;9939;49.246;9.106;2023-07-22T15:39:44;35.60;69.20
19586;DHT22;9939;49.246;9.106;2023-07-22T15:42:11;36.20;67.60
19586;DHT22;9939;49.246;9.106;2023-07-22T15:44:38;36.20;67.70
19586;DHT22;9939;49.246;9.106;2023-07-22T15:47:05;36.50;66.20
19586;DHT22;9939;49.246;9.106;2023-07-22T15:49:32;36.90;65.70
19586;DHT22;9939;49.246;9.106;2023-07-22T15:51:58;36.30;65.70
19586;DHT22;9939;49.246;9.106;2023-07-22T15:54:25;35.50;67.30
19586;DHT22;9939;49.246;9.106;2023-07-22T15:56:52;35.40;68.80